Time;durP1;ratioP1;P1;durP2;ratioP2;P2;SDS_P1;SDS_P2;PMS_P1;PMS_P2;Temp;Humidity;BMP_temperature;BMP_pressure;BME280_temperature;BME280_humidity;BME280_pressure;Samples;Min_cycle;Max_cycle;Signal;HPM_P1;HPM_P2
2022/02/21 00:02:12;;;;;;;1.58;0.82;;;;;;;9.80;100.00;97527.78;5004600;28;20038;-57
2022/02/21 00:04:37;;;;;;;1.00;0.85;;;;;;;9.86;100.00;97539.53;4993790;28;20045;-60
2022/02/21 00:07:04;;;;;;;3.28;0.90;;;;;;;9.73;100.00;97558.31;4998706;28;20053;-57
2022/02/21 00:09:29;;;;;;;2.75;0.98;;;;;;;9.75;100.00;97571.31;5002723;28;20034;-55
2022/02/21 00:11:55;;;;;;;0.63;0.52;;;;;;;9.78;100.00;97611.53;4990681;28;20887;-57
2022/02/21 00:14:20;;;;;;;0.60;0.55;;;;;;;9.90;100.00;97623.50;4997760;28;20435;-58
2022/02/21 00:16:46;;;;;;;1.13;0.38;;;;;;;10.09;100.00;97622.59;5005893;28;20076;-58
2022/02/21 00:19:12;;;;;;;3.03;0.55;;;;;;;9.98;100.00;97622.13;5009766;28;20424;-58
2022/02/21 00:21:37;;;;;;;1.33;0.32;;;;;;;9.87;100.00;97633.16;5010623;28;20064;-58
2022/02/21 00:24:03;;;;;;;0.32;0.20;;;;;;;9.66;100.00;97646.38;5011479;28;20493;-58
2022/02/21 00:26:29;;;;;;;0.30;0.20;;;;;;;9.71;100.00;97651.25;5010963;28;20121;-59
2022/02/21 00:28:54;;;;;;;0.77;0.77;;;;;;;9.63;100.00;97679.47;5010498;28;20507;-59
2022/02/21 00:31:20;;;;;;;4.40;0.30;;;;;;;9.54;100.00;97692.75;5011679;28;20333;-53
2022/02/21 00:33:45;;;;;;;0.20;0.20;;;;;;;9.46;100.00;97712.91;5009327;28;20038;-59
2022/02/21 00:36:10;;;;;;;0.22;0.22;;;;;;;9.15;100.00;97725.09;5012243;28;20045;-56
2022/02/21 00:38:36;;;;;;;0.82;0.28;;;;;;;9.16;100.00;97729.28;5006335;28;20025;-52
2022/02/21 00:41:02;;;;;;;0.32;0.32;;;;;;;9.01;100.00;97721.56;5010130;28;20125;-59
2022/02/21 00:43:28;;;;;;;0.47;0.28;;;;;;;8.99;100.00;97699.75;5009424;28;20029;-58
2022/02/21 00:45:54;;;;;;;0.20;0.20;;;;;;;8.78;100.00;97686.03;5011948;28;20409;-57
2022/02/21 00:48:19;;;;;;;0.22;0.22;;;;;;;8.79;100.00;97714.38;4993217;28;20037;-58
2022/02/21 00:50:45;;;;;;;2.00;0.30;;;;;;;8.76;100.00;97724.00;5001505;28;20485;-58
2022/02/21 00:53:11;;;;;;;0.20;0.20;;;;;;;8.76;100.00;97724.00;5005630;28;20186;-59
2022/02/21 00:55:36;;;;;;;2.05;1.35;;;;;;;8.78;100.00;97727.03;5011245;28;20041;-58
2022/02/21 00:58:03;;;;;;;0.68;0.30;;;;;;;8.75;100.00;97743.94;5010750;28;20316;-58
2022/02/21 01:00:30;;;;;;;1.33;0.30;;;;;;;8.83;100.00;97739.19;4990370;28;20038;-59
2022/02/21 01:02:56;;;;;;;0.15;0.13;;;;;;;8.70;100.00;97773.94;5001946;28;20022;-59
2022/02/21 01:05:21;;;;;;;0.17;0.17;;;;;;;8.78;100.00;97759.22;5007975;28;20515;-58
2022/02/21 01:07:49;;;;;;;0.20;0.20;;;;;;;8.49;100.00;97760.19;5009853;28;20034;-59
2022/02/21 01:10:15;;;;;;;0.65;0.32;;;;;;;8.51;100.00;97750.56;5010500;28;20049;-56
2022/02/21 01:12:40;;;;;;;0.10;0.10;;;;;;;8.45;100.00;97733.44;4999147;28;20085;-57
2022/02/21 01:15:07;;;;;;;0.20;0.15;;;;;;;8.20;100.00;97739.25;5004135;28;20037;-57
2022/02/21 01:17:33;;;;;;;0.10;0.10;;;;;;;8.19;100.00;97747.69;4994499;28;20069;-59
2022/02/21 01:20:03;;;;;;;0.13;0.13;;;;;;;8.15;100.00;97755.00;5007970;28;20139;-59
2022/02/21 01:22:30;;;;;;;0.22;0.22;;;;;;;8.28;100.00;97737.22;5008396;28;20041;-59
2022/02/21 01:24:55;;;;;;;0.55;0.28;;;;;;;8.25;100.00;97746.06;5010123;28;20038;-57
2022/02/21 01:27:21;;;;;;;4.97;0.30;;;;;;;8.04;100.00;97738.38;5010172;28;20395;-59
2022/02/21 01:29:46;;;;;;;0.20;0.20;;;;;;;8.05;100.00;97737.97;5007366;28;20038;-58
2022/02/21 01:32:12;;;;;;;0.15;0.15;;;;;;;8.17;100.00;97758.81;4994745;28;20120;-58
2022/02/21 01:34:37;;;;;;;0.20;0.20;;;;;;;8.08;100.00;97750.56;5009003;28;20036;-58
2022/02/21 01:37:03;;;;;;;1.45;0.30;;;;;;;8.05;100.00;97743.31;5008060;28;20032;-57
2022/02/21 01:39:29;;;;;;;0.22;0.22;;;;;;;8.10;100.00;97740.19;5009848;28;20034;-55
2022/02/21 01:41:54;;;;;;;0.20;0.20;;;;;;;7.88;100.00;97746.28;4999190;28;20044;-54
2022/02/21 01:44:19;;;;;;;0.10;0.10;;;;;;;7.73;100.00;97759.19;5009567;28;20033;-56
2022/02/21 01:46:45;;;;;;;0.30;0.13;;;;;;;7.76;100.00;97755.66;5008505;28;20034;-57
2022/02/21 01:49:12;;;;;;;0.15;0.15;;;;;;;7.61;100.00;97764.34;5010024;28;20500;-55
2022/02/21 01:51:38;;;;;;;0.10;0.10;;;;;;;7.72;100.00;97754.22;4998371;28;20034;-54
2022/02/21 01:54:09;;;;;;;0.20;0.20;;;;;;;7.64;100.00;97771.56;4990101;28;20034;-58
2022/02/21 01:56:36;;;;;;;0.20;0.20;;;;;;;7.72;100.00;97791.72;5015743;28;20077;-55
2022/02/21 01:59:03;;;;;;;0.10;0.10;;;;;;;7.82;100.00;97802.25;4999953;28;20038;-58
2022/02/21 02:01:28;;;;;;;0.10;0.10;;;;;;;7.76;100.00;97811.19;5006736;28;20045;-55
2022/02/21 02:03:54;;;;;;;0.20;0.20;;;;;;;7.72;100.00;97821.94;5007685;28;20033;-58
2022/02/21 02:06:21;;;;;;;0.15;0.10;;;;;;;7.73;100.00;97838.75;5004732;28;20041;-56
2022/02/21 02:08:46;;;;;;;0.13;0.13;;;;;;;7.80;100.00;97846.72;5009856;28;20444;-57
2022/02/21 02:11:13;;;;;;;0.22;0.20;;;;;;;7.78;100.00;97838.31;4994792;28;20050;-58
2022/02/21 02:13:38;;;;;;;0.20;0.20;;;;;;;7.74;100.00;97867.06;4991029;28;20042;-57
2022/02/21 02:16:04;;;;;;;0.10;0.10;;;;;;;7.71;100.00;97849.88;4990672;28;20034;-55
2022/02/21 02:18:30;;;;;;;0.10;0.10;;;;;;;7.60;100.00;97867.25;5006671;28;20225;-57
2022/02/21 02:20:55;;;;;;;4.70;0.30;;;;;;;7.55;100.00;97867.72;5008117;28;20026;-57
2022/02/21 02:23:20;;;;;;;0.10;0.10;;;;;;;7.53;100.00;97865.44;5008450;28;20073;-56
2022/02/21 02:25:46;;;;;;;0.30;0.30;;;;;;;7.62;100.00;97891.72;4989898;28;20038;-59
2022/02/21 02:28:11;;;;;;;0.10;0.10;;;;;;;7.57;100.00;97900.94;5024209;28;20069;-55
2022/02/21 02:30:37;;;;;;;0.30;0.20;;;;;;;7.46;100.00;97886.19;5003107;28;20034;-54
2022/02/21 02:33:02;;;;;;;0.15;0.15;;;;;;;7.27;100.00;97885.66;4997352;28;20033;-58
2022/02/21 02:35:30;;;;;;;0.22;0.22;;;;;;;7.22;100.00;97888.00;5005744;28;20045;-56
2022/02/21 02:37:55;;;;;;;0.10;0.10;;;;;;;7.08;100.00;97888.91;5008967;28;20405;-57
2022/02/21 02:40:20;;;;;;;0.30;0.30;;;;;;;7.29;100.00;97882.56;5000742;28;20038;-61
2022/02/21 02:42:46;;;;;;;1.33;0.40;;;;;;;7.20;100.00;97907.13;4990070;28;20049;-57
2022/02/21 02:45:12;;;;;;;0.95;0.30;;;;;;;7.23;100.00;97882.25;4989100;28;20065;-57
2022/02/21 02:47:38;;;;;;;0.80;0.52;;;;;;;7.21;100.00;97900.63;4989125;28;20045;-58
2022/02/21 02:50:05;;;;;;;0.17;0.17;;;;;;;7.16;100.00;97897.66;4996720;28;20652;-58
2022/02/21 02:52:30;;;;;;;0.10;0.10;;;;;;;7.04;100.00;97898.16;5003129;28;20549;-57
2022/02/21 02:54:56;;;;;;;0.20;0.20;;;;;;;7.13;100.00;97901.88;5007248;28;20046;-57
2022/02/21 02:57:21;;;;;;;0.52;0.20;;;;;;;7.04;100.00;97898.91;5010088;28;20037;-56
2022/02/21 02:59:46;;;;;;;0.20;0.20;;;;;;;7.13;100.00;97912.56;5009054;28;20466;-55
2022/02/21 03:02:12;;;;;;;0.90;0.28;;;;;;;7.02;100.00;97921.88;5008428;28;20029;-58
2022/02/21 03:04:37;;;;;;;6.60;1.05;;;;;;;7.05;100.00;97929.09;5002936;28;20072;-58
2022/02/21 03:07:03;;;;;;;4.70;0.60;;;;;;;6.85;100.00;97949.56;5005849;28;20028;-57
2022/02/21 03:09:29;;;;;;;0.50;0.50;;;;;;;6.88;100.00;97941.50;5008459;28;20029;-56
2022/02/21 03:11:55;;;;;;;1.65;0.40;;;;;;;6.74;100.00;97960.34;5008676;28;20034;-56
2022/02/21 03:14:21;;;;;;;3.22;0.40;;;;;;;6.83;100.00;97947.25;5000693;28;20038;-56
2022/02/21 03:16:47;;;;;;;1.48;0.60;;;;;;;6.91;100.00;97951.38;4989177;28;20030;-57
2022/02/21 03:19:12;;;;;;;3.65;0.73;;;;;;;6.97;100.00;97947.13;4988631;28;20515;-58
2022/02/21 03:21:38;;;;;;;1.60;0.63;;;;;;;6.94;100.00;97949.84;4997528;28;20559;-59
2022/02/21 03:24:03;;;;;;;4.20;0.55;;;;;;;6.96;100.00;97958.22;5007329;28;20049;-58
2022/02/21 03:26:29;;;;;;;0.43;0.43;;;;;;;6.95;100.00;97965.50;5008419;28;20117;-57
2022/02/21 03:28:54;;;;;;;2.28;0.65;;;;;;;6.89;100.00;97985.78;5003222;28;20064;-58
2022/02/21 03:31:20;;;;;;;0.45;0.40;;;;;;;6.74;100.00;97995.09;5009987;28;20038;-58
2022/02/21 03:33:46;;;;;;;3.28;0.80;;;;;;;6.68;100.00;98001.28;5009656;28;20034;-57
2022/02/21 03:36:12;;;;;;;2.17;0.70;;;;;;;6.70;100.00;98009.63;5006472;28;20164;-56
2022/02/21 03:38:37;;;;;;;1.40;0.30;;;;;;;6.72;100.00;98016.13;4997108;28;20400;-55
2022/02/21 03:41:03;;;;;;;0.68;0.68;;;;;;;6.80;100.00;98004.22;4990897;28;20034;-60
2022/02/21 03:43:29;;;;;;;0.30;0.20;;;;;;;6.74;100.00;98013.06;5026675;28;20030;-58
2022/02/21 03:45:54;;;;;;;5.43;1.00;;;;;;;6.51;100.00;98010.16;5002830;28;20480;-58
2022/02/21 03:48:20;;;;;;;2.35;0.88;;;;;;;6.47;100.00;98025.47;5010772;28;20492;-59
2022/02/21 03:50:45;;;;;;;2.53;0.60;;;;;;;6.44;100.00;98016.34;5012388;28;20427;-55
2022/02/21 03:53:11;;;;;;;1.02;0.40;;;;;;;6.47;100.00;98031.56;5011678;28;20040;-52
2022/02/21 03:55:36;;;;;;;0.98;0.30;;;;;;;6.45;100.00;98049.16;5005421;28;20519;-53
2022/02/21 03:58:02;;;;;;;3.60;1.08;;;;;;;6.46;100.00;98046.09;5011180;28;20489;-56
2022/02/21 04:00:28;;;;;;;3.28;0.50;;;;;;;6.29;100.00;98055.00;5006564;28;20113;-54
2022/02/21 04:02:53;;;;;;;2.45;0.77;;;;;;;6.31;100.00;98039.31;5001296;28;20037;-57
2022/02/21 04:05:19;;;;;;;0.35;0.35;;;;;;;6.21;100.00;98058.84;5011503;28;20069;-58
2022/02/21 04:07:45;;;;;;;3.22;0.40;;;;;;;6.30;100.00;98062.63;5011177;28;20042;-59
2022/02/21 04:10:13;;;;;;;9.30;0.80;;;;;;;6.30;100.00;98070.63;5008955;28;20513;-56
2022/02/21 04:12:39;;;;;;;2.25;1.15;;;;;;;6.30;100.00;98080.56;5012030;28;20123;-57
2022/02/21 04:15:05;;;;;;;2.10;0.68;;;;;;;6.27;100.00;98076.75;5000182;28;20440;-54
2022/02/21 04:17:52;;;;;;;2.33;0.47;;;;;;;6.37;100.00;98070.59;5004879;28;20037;-57
2022/02/21 04:20:20;;;;;;;0.88;0.85;;;;;;;6.36;100.00;98079.00;4990956;28;20435;-57
2022/02/21 04:22:46;;;;;;;5.47;0.73;;;;;;;6.36;100.00;98084.34;4993966;28;20030;-58
2022/02/21 04:25:12;;;;;;;5.20;0.65;;;;;;;6.25;100.00;98089.72;5010875;28;20052;-58
2022/02/21 04:27:47;;;;;;;4.65;0.50;;;;;;;6.19;100.00;98093.94;4992921;28;20133;-56
2022/02/21 04:30:14;;;;;;;4.72;0.65;;;;;;;6.19;100.00;98101.22;5022940;28;20417;-57
2022/02/21 04:32:43;;;;;;;13.00;1.13;;;;;;;6.19;100.00;98101.97;5003132;28;20061;-58
2022/02/21 04:35:09;;;;;;;5.38;0.50;;;;;;;6.27;100.00;98100.03;5005374;28;20042;-57
2022/02/21 04:37:36;;;;;;;5.07;0.80;;;;;;;6.08;100.00;98108.50;5004389;28;20092;-56
2022/02/21 04:40:06;;;;;;;3.78;0.70;;;;;;;6.13;100.00;98126.81;5006088;28;20041;-57
2022/02/21 04:42:32;;;;;;;0.32;0.32;;;;;;;6.17;100.00;98114.97;5008108;28;20056;-59
2022/02/21 04:44:58;;;;;;;5.10;1.08;;;;;;;5.95;100.00;98126.09;5024991;28;20083;-55
2022/02/21 04:47:23;;;;;;;0.68;0.57;;;;;;;6.02;100.00;98155.47;5029583;28;20034;-58
2022/02/21 04:49:49;;;;;;;0.75;0.52;;;;;;;6.08;100.00;98168.03;5025728;28;20053;-57
2022/02/21 04:52:14;;;;;;;1.30;0.40;;;;;;;6.09;100.00;98161.56;5009390;28;20049;-59
2022/02/21 04:54:40;;;;;;;2.75;0.55;;;;;;;6.14;100.00;98152.38;4993715;28;20042;-57
2022/02/21 04:57:05;;;;;;;5.05;0.43;;;;;;;5.93;100.00;98144.41;4990438;28;20049;-55
2022/02/21 04:59:31;;;;;;;0.43;0.43;;;;;;;5.81;100.00;98166.91;5001435;28;20042;-59
2022/02/21 05:02:00;;;;;;;7.20;0.35;;;;;;;5.94;100.00;98170.00;5004118;28;20030;-59
2022/02/21 05:04:28;;;;;;;0.20;0.20;;;;;;;5.79;100.00;98155.13;5025241;22;20212;-54
2022/02/21 05:06:54;;;;;;;0.88;0.32;;;;;;;5.77;100.00;98157.41;5027439;28;20052;-56
2022/02/21 05:09:19;;;;;;;2.35;0.30;;;;;;;5.61;100.00;98151.69;5017465;28;20045;-56
2022/02/21 05:11:45;;;;;;;1.23;0.15;;;;;;;5.73;100.00;98159.31;5006962;28;20038;-55
2022/02/21 05:14:10;;;;;;;0.30;0.30;;;;;;;5.76;100.00;98159.31;5002641;28;20033;-50
2022/02/21 05:16:36;;;;;;;0.30;0.30;;;;;;;5.84;100.00;98160.09;5001412;28;20041;-55
2022/02/21 05:19:02;;;;;;;3.22;0.30;;;;;;;5.63;100.00;98154.75;5008366;28;20552;-55
2022/02/21 05:21:29;;;;;;;0.93;0.32;;;;;;;5.62;100.00;98150.53;5009904;28;20623;-57
2022/02/21 05:23:54;;;;;;;0.45;0.45;;;;;;;5.62;100.00;98145.19;5001030;28;20038;-52
2022/02/21 05:26:20;;;;;;;4.88;0.50;;;;;;;5.64;100.00;98151.69;4990978;28;20040;-56
2022/02/21 05:28:45;;;;;;;1.92;0.50;;;;;;;5.64;100.00;98149.03;4996620;28;20601;-59
2022/02/21 05:31:11;;;;;;;2.72;0.50;;;;;;;5.62;100.00;98161.22;5007866;28;20038;-55
2022/02/21 05:33:36;;;;;;;3.38;0.47;;;;;;;5.46;100.00;98157.03;5009217;28;20038;-55
2022/02/21 05:36:03;;;;;;;0.52;0.45;;;;;;;5.60;100.00;98161.59;5009625;28;20080;-59
2022/02/21 05:38:28;;;;;;;0.25;0.22;;;;;;;5.65;100.00;98160.47;5002303;28;20289;-56
2022/02/21 05:40:53;;;;;;;1.80;0.50;;;;;;;5.67;100.00;98164.25;5009434;28;20048;-57
2022/02/21 05:43:19;;;;;;;0.85;0.55;;;;;;;5.67;100.00;98174.94;5006221;28;20133;-54
2022/02/21 05:45:44;;;;;;;1.45;0.50;;;;;;;5.62;100.00;98163.88;5004945;28;20029;-58
2022/02/21 05:48:10;;;;;;;7.47;0.85;;;;;;;5.67;100.00;98168.84;5006503;28;20154;-57
2022/02/21 05:50:35;;;;;;;0.68;0.50;;;;;;;5.70;100.00;98176.09;5009706;28;20041;-55
2022/02/21 05:53:01;;;;;;;4.53;1.25;;;;;;;5.80;100.00;98176.09;5008923;28;20026;-54
2022/02/21 05:55:26;;;;;;;13.90;0.63;;;;;;;5.55;100.00;98177.25;4992987;28;20045;-57
2022/02/21 05:57:59;;;;;;;4.65;1.13;;;;;;;5.55;100.00;98179.91;5003449;28;20377;-57
2022/02/21 06:00:25;;;;;;;6.97;0.98;;;;;;;5.57;100.00;98198.97;5000469;28;20458;-57
2022/02/21 06:02:50;;;;;;;0.10;0.10;;;;;;;5.31;100.00;98189.44;5004871;28;20026;-56
2022/02/21 06:05:16;;;;;;;0.68;0.40;;;;;;;5.37;100.00;98194.03;4982107;28;20488;-58
2022/02/21 06:07:41;;;;;;;0.50;0.22;;;;;;;5.43;100.00;98200.50;5009982;28;20033;-57
2022/02/21 06:10:07;;;;;;;0.82;0.57;;;;;;;5.47;100.00;98211.94;5001417;28;20038;-61
2022/02/21 06:12:32;;;;;;;2.85;0.57;;;;;;;5.22;100.00;98216.50;4994396;28;20038;-57
2022/02/21 06:14:58;;;;;;;0.52;0.22;;;;;;;5.31;100.00;98235.56;4998937;28;20026;-55
2022/02/21 06:17:24;;;;;;;4.40;0.68;;;;;;;5.32;100.00;98231.72;4991479;28;20091;-57
2022/02/21 06:19:49;;;;;;;0.30;0.28;;;;;;;5.25;100.00;98239.75;4988893;28;20176;-57
2022/02/21 06:22:15;;;;;;;0.82;0.82;;;;;;;5.11;100.00;98236.28;4989777;28;20540;-60
2022/02/21 06:24:40;;;;;;;0.45;0.40;;;;;;;5.00;100.00;98251.50;5003659;28;20033;-59
2022/02/21 06:27:06;;;;;;;0.10;0.10;;;;;;;5.12;100.00;98248.47;5009556;28;20033;-59
2022/02/21 06:29:31;;;;;;;0.68;0.60;;;;;;;5.12;100.00;98251.91;4996085;28;20116;-58
2022/02/21 06:31:57;;;;;;;3.30;0.88;;;;;;;5.14;100.00;98228.28;5003563;28;20041;-59
2022/02/21 06:34:23;;;;;;;0.20;0.17;;;;;;;5.04;100.00;98261.03;4969989;28;20045;-58
2022/02/21 06:36:48;;;;;;;7.90;1.00;;;;;;;5.17;100.00;98266.75;5003001;28;20038;-60
2022/02/21 06:39:15;;;;;;;1.27;0.50;;;;;;;5.21;100.00;98259.53;4984187;28;20034;-57
2022/02/21 06:41:40;;;;;;;0.55;0.35;;;;;;;5.18;100.00;98258.41;5007514;28;20385;-59
2022/02/21 06:44:06;;;;;;;0.88;0.88;;;;;;;5.03;100.00;98264.09;5004778;28;20034;-56
2022/02/21 06:46:32;;;;;;;0.70;0.43;;;;;;;4.99;100.00;98261.41;5007782;28;20034;-59
2022/02/21 06:48:57;;;;;;;1.77;0.50;;;;;;;5.04;100.00;98263.69;5008368;28;20114;-55
2022/02/21 06:51:22;;;;;;;2.83;0.55;;;;;;;5.13;100.00;98258.03;5011915;28;20041;-58
2022/02/21 06:53:48;;;;;;;2.53;0.70;;;;;;;5.09;100.00;98260.66;5017460;28;20467;-59
2022/02/21 06:56:13;;;;;;;2.22;0.22;;;;;;;5.26;100.00;98281.28;5028361;28;20040;-54
2022/02/21 06:58:38;;;;;;;2.00;0.47;;;;;;;5.31;100.00;98266.81;4982110;28;20475;-57
2022/02/21 07:01:04;;;;;;;0.30;0.30;;;;;;;5.40;100.00;98267.97;4995932;28;20118;-55
2022/02/21 07:03:29;;;;;;;4.20;1.85;;;;;;;5.38;100.00;98272.16;5008505;28;20030;-57
2022/02/21 07:05:55;;;;;;;13.05;1.40;;;;;;;5.20;100.00;98288.13;5012564;28;20073;-57
2022/02/21 07:08:20;;;;;;;1.38;0.80;;;;;;;5.16;100.00;98270.59;5010030;28;20203;-58
2022/02/21 07:10:46;;;;;;;1.38;0.60;;;;;;;5.26;100.00;98286.63;4995686;28;20172;-56
2022/02/21 07:13:11;;;;;;;2.97;0.68;;;;;;;5.32;100.00;98281.69;5009263;28;20476;-59
2022/02/21 07:15:36;;;;;;;7.20;0.85;;;;;;;5.38;100.00;98288.94;5001162;28;20029;-57
2022/02/21 07:18:02;;;;;;;8.02;1.73;;;;;;;5.47;100.00;98310.69;5006310;28;20038;-57
2022/02/21 07:20:27;;;;;;;3.78;0.43;;;;;;;5.44;100.00;98302.66;5007638;28;20030;-59
2022/02/21 07:22:53;;;;;;;3.85;0.70;;;;;;;5.54;100.00;98296.56;5010306;28;20054;-57
2022/02/21 07:25:18;;;;;;;1.85;0.60;;;;;;;5.64;100.00;98305.75;5005611;28;20103;-54
2022/02/21 07:27:49;;;;;;;0.50;0.40;;;;;;;5.53;100.00;98308.41;5007215;28;20038;-56
2022/02/21 07:30:16;;;;;;;2.72;0.63;;;;;;;5.43;100.00;98309.16;5018129;28;20539;-57
2022/02/21 07:32:42;;;;;;;1.38;0.47;;;;;;;5.40;100.00;98308.00;5010991;28;20496;-59
2022/02/21 07:35:08;;;;;;;0.68;0.65;;;;;;;5.33;100.00;98307.22;5008411;28;20061;-59
2022/02/21 07:37:34;;;;;;;0.85;0.40;;;;;;;5.30;100.00;98321.31;4984812;28;20030;-56
2022/02/21 07:40:00;;;;;;;1.20;0.95;;;;;;;5.14;100.00;98294.22;5010466;28;20049;-58
2022/02/21 07:42:25;;;;;;;0.70;0.55;;;;;;;4.83;100.00;98286.84;5002885;28;20030;-56
2022/02/21 07:44:52;;;;;;;0.40;0.40;;;;;;;4.99;100.00;98298.75;5015629;28;20105;-59
2022/02/21 07:47:20;;;;;;;0.73;0.68;;;;;;;5.01;100.00;98315.13;5019680;28;20038;-57
2022/02/21 07:49:46;;;;;;;0.40;0.40;;;;;;;4.95;100.00;98308.63;4989113;28;20414;-58
2022/02/21 07:52:12;;;;;;;1.13;0.88;;;;;;;5.10;100.00;98304.88;5004757;28;20034;-55
2022/02/21 07:54:37;;;;;;;0.60;0.60;;;;;;;5.40;100.00;98312.59;5006962;28;20121;-56
2022/02/21 07:57:06;;;;;;;5.28;0.95;;;;;;;5.55;100.00;98308.03;5005857;28;20498;-58
2022/02/21 07:59:32;;;;;;;0.93;0.90;;;;;;;5.79;100.00;98321.41;4993452;28;20389;-57
2022/02/21 08:01:57;;;;;;;0.77;0.60;;;;;;;6.00;100.00;98312.69;4999429;28;20017;-60
2022/02/21 08:04:22;;;;;;;1.27;0.43;;;;;;;5.99;100.00;98321.81;5016943;28;20116;-57
2022/02/21 08:06:48;;;;;;;10.05;0.98;;;;;;;5.82;100.00;98334.00;5003485;28;20164;-58
2022/02/21 08:09:13;;;;;;;5.57;0.60;;;;;;;5.72;100.00;98326.75;5011919;28;20060;-59
2022/02/21 08:11:39;;;;;;;1.13;0.77;;;;;;;5.61;100.00;98341.22;5004057;28;20116;-56
2022/02/21 08:14:05;;;;;;;1.85;0.50;;;;;;;5.52;100.00;98338.16;5005063;28;20044;-59
2022/02/21 08:16:31;;;;;;;3.28;1.00;;;;;;;5.50;100.00;98359.84;4988333;28;20562;-60
2022/02/21 08:18:56;;;;;;;2.58;0.40;;;;;;;5.42;100.00;98353.75;5008781;28;20042;-57
2022/02/21 08:21:22;;;;;;;0.47;0.40;;;;;;;5.44;100.00;98366.69;5011590;28;20481;-57
2022/02/21 08:23:47;;;;;;;1.63;0.52;;;;;;;5.47;100.00;98371.28;4981128;28;20298;-57
2022/02/21 08:26:13;;;;;;;0.35;0.35;;;;;;;5.08;100.00;98351.72;5022322;28;20876;-59
2022/02/21 08:28:39;;;;;;;0.22;0.22;;;;;;;5.14;100.00;98348.31;5018911;28;20030;-57
2022/02/21 08:31:04;;;;;;;1.80;0.60;;;;;;;5.15;100.00;98338.44;5012139;28;20124;-57
2022/02/21 08:33:30;;;;;;;0.47;0.30;;;;;;;5.10;100.00;98349.44;5018380;28;20037;-60
2022/02/21 08:35:55;;;;;;;9.60;1.02;;;;;;;4.93;100.00;98353.56;5001257;28;20492;-58
2022/02/21 08:38:21;;;;;;;1.52;0.88;;;;;;;4.55;100.00;98372.75;5010973;28;20034;-56
2022/02/21 08:40:48;;;;;;;1.27;0.40;;;;;;;4.48;100.00;98373.47;5020184;28;20412;-54
2022/02/21 08:43:14;;;;;;;1.60;0.52;;;;;;;4.76;100.00;98383.56;5011431;28;20076;-58
2022/02/21 08:45:40;;;;;;;1.10;0.63;;;;;;;4.77;100.00;98393.06;5012232;28;20112;-59
2022/02/21 08:48:05;;;;;;;1.75;0.73;;;;;;;4.89;100.00;98397.34;5016341;28;20117;-54
2022/02/21 08:50:31;;;;;;;2.55;0.40;;;;;;;4.84;100.00;98387.03;4991566;28;20395;-56
2022/02/21 08:52:56;;;;;;;0.95;0.50;;;;;;;4.83;100.00;98377.50;5009128;28;20451;-53
2022/02/21 08:55:22;;;;;;;1.27;0.52;;;;;;;4.92;100.00;98368.00;4990181;28;20042;-56
2022/02/21 08:57:48;;;;;;;7.43;0.60;;;;;;;4.99;100.00;98373.41;5010228;28;20100;-55
2022/02/21 09:00:15;;;;;;;0.93;0.50;;;;;;;4.93;100.00;98372.22;5016016;28;20116;-56
2022/02/21 09:02:44;;;;;;;1.60;0.50;;;;;;;4.81;100.00;98353.88;4988329;28;20145;-53
2022/02/21 09:05:10;;;;;;;0.50;0.50;;;;;;;4.87;100.00;98359.63;5015286;28;20096;-59
2022/02/21 09:07:36;;;;;;;0.40;0.40;;;;;;;4.91;100.00;98371.84;5013094;28;20262;-58
2022/02/21 09:10:01;;;;;;;0.93;0.82;;;;;;;4.61;100.00;98362.53;5006989;28;20115;-60
2022/02/21 09:12:27;;;;;;;1.00;0.57;;;;;;;4.70;100.00;98384.28;4993693;28;20030;-60
2022/02/21 09:14:56;;;;;;;0.40;0.40;;;;;;;4.76;100.00;98366.78;5010940;28;20042;-58
2022/02/21 09:17:22;;;;;;;1.40;0.68;;;;;;;4.70;100.00;98370.94;5002710;28;20041;-60
2022/02/21 09:19:47;;;;;;;0.38;0.32;;;;;;;4.77;100.00;98357.66;5010298;28;20038;-60
2022/02/21 09:22:13;;;;;;;6.38;0.90;;;;;;;4.86;100.00;98358.09;5007474;28;20504;-58
2022/02/21 09:24:38;;;;;;;0.47;0.28;;;;;;;4.79;100.00;98355.38;4992590;28;20049;-55
2022/02/21 09:27:04;;;;;;;0.63;0.57;;;;;;;4.86;100.00;98358.09;4998508;28;20042;-60
2022/02/21 09:29:29;;;;;;;1.08;0.70;;;;;;;4.97;100.00;98351.69;4990755;28;20034;-60
2022/02/21 09:31:56;;;;;;;7.45;1.00;;;;;;;5.03;100.00;98346.75;5005048;28;20041;-58
2022/02/21 09:34:21;;;;;;;4.95;0.52;;;;;;;4.92;100.00;98338.69;5002043;28;20064;-59
2022/02/21 09:36:47;;;;;;;1.20;0.60;;;;;;;4.97;100.00;98353.56;5002425;28;20025;-56
2022/02/21 09:39:13;;;;;;;0.47;0.47;;;;;;;4.98;100.00;98369.19;5007890;28;20165;-60
2022/02/21 09:41:38;;;;;;;0.70;0.70;;;;;;;4.87;100.00;98371.03;5006607;28;20041;-61
2022/02/21 09:44:04;;;;;;;0.30;0.30;;;;;;;4.99;100.00;98369.97;5005337;28;20053;-58
2022/02/21 09:46:31;;;;;;;1.35;0.60;;;;;;;4.83;100.00;98348.94;5009417;28;20033;-57
2022/02/21 09:48:58;;;;;;;1.15;0.50;;;;;;;4.91;100.00;98350.50;5009543;28;20045;-59
2022/02/21 09:51:24;;;;;;;0.40;0.20;;;;;;;4.98;100.00;98366.53;5008698;28;20044;-59
2022/02/21 09:53:50;;;;;;;2.83;1.45;;;;;;;5.01;100.00;98359.69;5002573;28;20026;-57
2022/02/21 09:56:16;;;;;;;1.98;0.40;;;;;;;5.09;100.00;98364.66;5015173;28;20033;-59
2022/02/21 09:58:42;;;;;;;0.55;0.52;;;;;;;5.16;100.00;98364.72;5010136;28;20041;-58
2022/02/21 10:01:08;;;;;;;5.18;0.93;;;;;;;5.20;100.00;98378.84;5013731;28;20175;-59
2022/02/21 10:03:36;;;;;;;4.80;0.70;;;;;;;5.12;100.00;98369.25;4998809;28;20516;-59
2022/02/21 10:06:41;;;;;;;1.08;0.30;;;;;;;5.28;100.00;98366.28;5019491;28;20219;-59
2022/02/21 10:09:10;;;;;;;0.52;0.50;;;;;;;5.43;100.00;98379.28;4953417;28;20039;-59
2022/02/21 10:11:44;;;;;;;2.13;0.85;;;;;;;5.40;100.00;98372.03;4958496;28;20185;-58
2022/02/21 10:14:12;;;;;;;1.10;0.75;;;;;;;5.43;100.00;98368.63;4952668;28;20489;-58
2022/02/21 10:16:45;;;;;;;0.57;0.55;;;;;;;5.33;100.00;98380.03;4947470;29;20079;-59
2022/02/21 10:19:20;;;;;;;0.10;0.10;;;;;;;5.53;100.00;98377.03;4936439;28;20038;-59
2022/02/21 10:21:59;;;;;;;1.48;0.60;;;;;;;5.75;100.00;98397.31;4968613;28;20045;-59
2022/02/21 10:24:26;;;;;;;1.45;0.52;;;;;;;5.90;100.00;98414.91;4952086;28;20379;-58
2022/02/21 10:26:54;;;;;;;1.58;0.50;;;;;;;5.80;100.00;98397.69;4948321;29;20170;-59
2022/02/21 10:29:20;;;;;;;2.15;0.60;;;;;;;5.71;100.00;98399.94;4950816;28;20401;-59
2022/02/21 10:31:46;;;;;;;5.35;0.50;;;;;;;5.80;100.00;98396.94;4968285;28;20498;-59
2022/02/21 10:34:11;;;;;;;3.10;0.70;;;;;;;5.71;100.00;98397.28;4951843;28;20053;-58
2022/02/21 10:36:42;;;;;;;0.65;0.40;;;;;;;5.64;100.00;98405.28;4935216;29;20067;-58
2022/02/21 10:39:10;;;;;;;1.40;0.57;;;;;;;5.65;100.00;98404.16;4956924;28;20136;-54
2022/02/21 10:41:50;;;;;;;0.98;0.50;;;;;;;5.72;100.00;98403.38;5019713;28;20302;-57
2022/02/21 10:44:17;;;;;;;3.60;0.55;;;;;;;5.78;100.00;98407.22;5008912;28;20042;-57
2022/02/21 10:47:07;;;;;;;6.97;0.75;;;;;;;5.95;100.00;98406.53;5005700;28;20125;-54
2022/02/21 10:49:34;;;;;;;2.30;0.60;;;;;;;5.99;100.00;98408.06;5010545;28;20400;-56
2022/02/21 10:52:02;;;;;;;6.78;0.75;;;;;;;5.98;100.00;98422.53;4991457;28;20066;-58
2022/02/21 10:54:31;;;;;;;0.70;0.70;;;;;;;5.89;100.00;98410.69;4993272;28;20034;-55
2022/02/21 10:56:57;;;;;;;0.98;0.52;;;;;;;6.03;100.00;98430.22;4994626;28;20120;-59
2022/02/21 10:59:28;;;;;;;6.35;1.80;;;;;;;5.92;100.00;98428.66;4999214;28;20180;-56
2022/02/21 11:01:55;;;;;;;1.52;0.95;;;;;;;6.06;100.00;98423.31;5002361;28;20037;-57
2022/02/21 11:04:24;;;;;;;2.85;1.77;;;;;;;5.98;100.00;98445.84;5004741;22;20050;-55
2022/02/21 11:06:50;;;;;;;1.73;0.47;;;;;;;5.90;100.00;98437.06;4994704;28;20031;-50
2022/02/21 11:09:19;;;;;;;2.85;0.70;;;;;;;5.98;100.00;98429.81;4986983;28;20017;-57
2022/02/21 11:11:50;;;;;;;1.08;0.65;;;;;;;6.06;100.00;98437.44;4999361;28;20109;-54
2022/02/21 11:14:22;;;;;;;0.65;0.55;;;;;;;6.12;100.00;98438.59;4994515;28;20057;-55
2022/02/21 11:16:49;;;;;;;5.20;0.60;;;;;;;6.27;100.00;98439.41;4990735;28;20048;-57
2022/02/21 11:19:16;;;;;;;1.98;0.45;;;;;;;6.16;100.00;98438.59;4996248;28;20041;-53
2022/02/21 11:21:42;;;;;;;5.72;0.77;;;;;;;5.93;100.00;98443.53;4996410;28;20043;-56
2022/02/21 11:24:09;;;;;;;0.70;0.40;;;;;;;5.72;100.00;98435.44;5003493;28;20057;-55
2022/02/21 11:26:38;;;;;;;2.22;1.08;;;;;;;5.95;100.00;98446.59;4995178;28;20066;-56
2022/02/21 11:29:15;;;;;;;0.40;0.40;;;;;;;5.83;100.00;98441.56;4989493;28;20037;-54
2022/02/21 11:31:41;;;;;;;0.90;0.45;;;;;;;5.89;100.00;98450.75;4995147;28;20030;-54